Time;durP1;ratioP1;P1;durP2;ratioP2;P2;SDS_P1;SDS_P2;PMS_P1;PMS_P2;Temp;Humidity;BMP_temperature;BMP_pressure;BME280_temperature;BME280_humidity;BME280_pressure;Samples;Min_cycle;Max_cycle;Signal;HPM_P1;HPM_P2
2023/08/19 00:03:49;;;;;;;13.68;12.00;;;;;;;;;;10431129;28;20429;-93
2023/08/19 00:08:52;;;;;;;14.05;12.35;;;;;;;;;;10441290;28;20462;-96
2023/08/19 00:13:56;;;;;;;14.63;12.33;;;;;;;;;;10446905;28;20436;-96
2023/08/19 00:18:58;;;;;;;14.38;11.82;;;;;;;;;;10445569;28;20478;-96
2023/08/19 00:24:01;;;;;;;14.20;12.70;;;;;;;;;;10445058;28;20416;-96
2023/08/19 00:29:05;;;;;;;15.23;12.50;;;;;;;;;;10443438;28;20463;-96
2023/08/19 00:34:08;;;;;;;13.77;12.32;;;;;;;;;;10417874;28;20415;-94
2023/08/19 00:39:11;;;;;;;13.68;12.02;;;;;;;;;;10418108;28;20472;-94
2023/08/19 00:44:15;;;;;;;16.25;12.60;;;;;;;;;;10415088;28;20417;-93
2023/08/19 00:49:17;;;;;;;14.93;12.98;;;;;;;;;;10441900;28;20409;-95
2023/08/19 00:54:20;;;;;;;16.25;13.60;;;;;;;;;;10440026;28;20458;-93
2023/08/19 00:59:24;;;;;;;15.67;13.23;;;;;;;;;;10432059;28;20951;-94
2023/08/19 01:04:26;;;;;;;15.80;14.02;;;;;;;;;;10435708;28;20424;-96
2023/08/19 01:09:38;;;;;;;16.60;14.27;;;;;;;;;;10444725;28;20467;-96
2023/08/19 01:14:51;;;;;;;16.50;14.27;;;;;;;;;;10444059;28;20412;-93
2023/08/19 01:19:55;;;;;;;16.42;14.30;;;;;;;;;;10413007;28;20889;-94
2023/08/19 01:25:00;;;;;;;17.33;14.50;;;;;;;;;;10414129;28;20417;-96
2023/08/19 01:30:02;;;;;;;15.50;13.75;;;;;;;;;;10430026;28;20477;-96
2023/08/19 01:35:06;;;;;;;15.60;13.87;;;;;;;;;;10418044;28;20413;-96
2023/08/19 01:40:13;;;;;;;18.75;13.63;;;;;;;;;;10417850;28;20413;-96
2023/08/19 01:45:16;;;;;;;15.35;12.82;;;;;;;;;;10423449;28;20416;-96
2023/08/19 01:50:18;;;;;;;15.50;13.07;;;;;;;;;;10440022;28;20400;-96
2023/08/19 01:55:23;;;;;;;16.23;12.63;;;;;;;;;;10433419;28;20774;-93
2023/08/19 02:00:25;;;;;;;15.43;12.40;;;;;;;;;;10431845;28;20889;-96
2023/08/19 02:05:28;;;;;;;15.80;12.63;;;;;;;;;;10439572;28;20949;-95
2023/08/19 02:10:32;;;;;;;13.88;12.40;;;;;;;;;;10431964;28;20419;-94
2023/08/19 02:15:34;;;;;;;15.32;12.30;;;;;;;;;;10431198;28;20418;-96
2023/08/19 02:20:37;;;;;;;14.23;12.37;;;;;;;;;;10441957;28;20408;-96
2023/08/19 02:25:41;;;;;;;14.10;12.60;;;;;;;;;;10412756;28;20836;-94
2023/08/19 02:30:43;;;;;;;14.68;11.95;;;;;;;;;;10412325;28;20417;-96
2023/08/19 02:35:50;;;;;;;13.43;11.77;;;;;;;;;;10432730;28;20475;-94
2023/08/19 02:40:54;;;;;;;13.57;11.50;;;;;;;;;;10437171;28;20475;-96
2023/08/19 02:45:57;;;;;;;13.90;12.03;;;;;;;;;;10445687;28;20419;-96
2023/08/19 02:51:00;;;;;;;14.73;12.33;;;;;;;;;;10443557;28;20436;-96
2023/08/19 02:56:06;;;;;;;15.45;12.45;;;;;;;;;;10445748;28;20470;-96
2023/08/19 03:01:13;;;;;;;14.07;12.40;;;;;;;;;;10442342;28;20828;-96
2023/08/19 03:06:15;;;;;;;14.43;12.52;;;;;;;;;;10447457;28;20417;-96
2023/08/19 03:11:19;;;;;;;14.20;11.93;;;;;;;;;;10425567;28;20417;-96
2023/08/19 03:16:21;;;;;;;13.85;12.23;;;;;;;;;;10424761;28;20947;-96
2023/08/19 03:21:24;;;;;;;13.67;12.00;;;;;;;;;;10426277;28;20430;-96
2023/08/19 03:26:28;;;;;;;14.63;12.00;;;;;;;;;;10436698;28;20416;-93
2023/08/19 03:31:30;;;;;;;14.50;11.98;;;;;;;;;;10442071;28;20493;-93
2023/08/19 03:36:33;;;;;;;13.82;11.43;;;;;;;;;;10435190;28;20415;-96
2023/08/19 03:41:37;;;;;;;15.38;11.80;;;;;;;;;;10440168;28;20421;-96
2023/08/19 03:46:39;;;;;;;12.68;11.20;;;;;;;;;;10438741;28;20418;-96
2023/08/19 03:51:42;;;;;;;16.23;11.87;;;;;;;;;;10438901;28;20894;-96
2023/08/19 03:56:46;;;;;;;12.93;11.45;;;;;;;;;;10443518;28;20412;-94
2023/08/19 04:01:48;;;;;;;13.40;11.10;;;;;;;;;;10433983;28;20410;-96
2023/08/19 04:06:50;;;;;;;12.88;11.05;;;;;;;;;;10419221;28;20845;-93
2023/08/19 04:11:55;;;;;;;12.95;11.05;;;;;;;;;;10417225;28;20555;-93
2023/08/19 04:16:57;;;;;;;13.93;12.07;;;;;;;;;;10432536;28;20471;-96
2023/08/19 04:21:59;;;;;;;12.27;10.77;;;;;;;;;;10439096;28;20466;-96
2023/08/19 04:27:04;;;;;;;12.18;10.45;;;;;;;;;;10437364;28;20763;-96
2023/08/19 04:32:07;;;;;;;12.65;10.25;;;;;;;;;;10440008;28;20414;-96
2023/08/19 04:37:09;;;;;;;12.02;9.15;;;;;;;;;;10438395;28;20461;-96
2023/08/19 04:42:13;;;;;;;12.35;10.18;;;;;;;;;;10434935;28;20881;-94
2023/08/19 04:47:15;;;;;;;12.80;10.38;;;;;;;;;;10438232;28;20479;-96
2023/08/19 04:52:18;;;;;;;14.65;11.30;;;;;;;;;;10435425;28;20412;-95
2023/08/19 04:57:22;;;;;;;14.50;12.00;;;;;;;;;;10435507;28;20415;-96
2023/08/19 05:02:24;;;;;;;14.13;11.43;;;;;;;;;;10440087;28;20419;-95
2023/08/19 05:07:27;;;;;;;12.15;10.95;;;;;;;;;;10437866;28;20442;-96
2023/08/19 05:12:30;;;;;;;12.45;10.50;;;;;;;;;;10436284;28;20407;-95
2023/08/19 05:17:33;;;;;;;11.90;10.13;;;;;;;;;;10436247;28;20442;-95
2023/08/19 05:22:35;;;;;;;12.10;10.80;;;;;;;;;;10434338;28;20412;-96
2023/08/19 05:27:39;;;;;;;12.83;10.87;;;;;;;;;;10442405;28;20408;-96
2023/08/19 05:32:42;;;;;;;16.40;11.60;;;;;;;;;;10435892;28;20412;-95
2023/08/19 05:37:44;;;;;;;12.10;10.70;;;;;;;;;;10437735;28;20434;-94
2023/08/19 05:42:48;;;;;;;15.05;10.98;;;;;;;;;;10432529;28;20412;-96
2023/08/19 05:47:52;;;;;;;12.13;10.18;;;;;;;;;;10436419;28;20424;-96
2023/08/19 05:52:54;;;;;;;11.33;9.83;;;;;;;;;;10432699;28;20475;-96
2023/08/19 05:57:58;;;;;;;11.80;10.02;;;;;;;;;;10434344;28;20441;-96
2023/08/19 06:03:00;;;;;;;12.23;9.67;;;;;;;;;;10437053;28;20477;-96
2023/08/19 06:08:04;;;;;;;11.50;9.20;;;;;;;;;;10438178;28;20421;-95
2023/08/19 06:13:08;;;;;;;11.13;9.63;;;;;;;;;;10437694;28;20403;-96
2023/08/19 06:18:10;;;;;;;11.85;8.93;;;;;;;;;;10441051;28;20448;-96
2023/08/19 06:23:12;;;;;;;11.18;9.02;;;;;;;;;;10440592;28;20442;-96
2023/08/19 06:28:16;;;;;;;9.77;8.77;;;;;;;;;;10441511;28;20425;-95
2023/08/19 06:33:19;;;;;;;11.65;8.95;;;;;;;;;;10446355;28;20446;-96
2023/08/19 06:38:24;;;;;;;12.13;8.90;;;;;;;;;;10438672;28;20417;-94
2023/08/19 06:43:31;;;;;;;9.60;8.52;;;;;;;;;;10446131;28;20455;-95
2023/08/19 06:48:34;;;;;;;10.18;9.10;;;;;;;;;;10446268;28;20425;-96
2023/08/19 06:53:37;;;;;;;9.00;8.17;;;;;;;;;;10448034;28;20408;-95
2023/08/19 06:58:45;;;;;;;9.23;8.10;;;;;;;;;;10445165;28;20470;-95
2023/08/19 07:03:50;;;;;;;8.82;7.93;;;;;;;;;;10454113;28;20420;-95
2023/08/19 07:08:52;;;;;;;9.68;8.18;;;;;;;;;;10451610;28;20420;-96
2023/08/19 07:13:57;;;;;;;8.45;7.45;;;;;;;;;;10444675;28;20413;-95
2023/08/19 07:19:03;;;;;;;8.65;7.78;;;;;;;;;;10433942;28;20416;-96
2023/08/19 07:24:07;;;;;;;8.30;7.40;;;;;;;;;;10439331;28;20464;-95
2023/08/19 07:29:12;;;;;;;9.10;7.27;;;;;;;;;;10416461;28;20425;-95
2023/08/19 07:34:14;;;;;;;10.13;7.18;;;;;;;;;;10417058;28;20480;-94
2023/08/19 07:39:17;;;;;;;7.63;6.70;;;;;;;;;;10417045;28;20962;-95
2023/08/19 07:44:21;;;;;;;8.17;6.93;;;;;;;;;;10452558;28;20471;-95
2023/08/19 07:49:23;;;;;;;10.82;7.82;;;;;;;;;;10447454;28;20425;-96
2023/08/19 07:54:26;;;;;;;7.90;7.10;;;;;;;;;;10450099;28;20416;-96
2023/08/19 07:59:30;;;;;;;8.98;8.07;;;;;;;;;;10465152;28;20404;-95
2023/08/19 08:04:33;;;;;;;8.55;7.32;;;;;;;;;;10463296;28;20408;-96
2023/08/19 08:09:37;;;;;;;8.57;7.03;;;;;;;;;;10452989;28;20456;-95
2023/08/19 08:14:41;;;;;;;8.50;7.60;;;;;;;;;;10460758;28;20403;-95
2023/08/19 08:19:45;;;;;;;9.02;8.10;;;;;;;;;;10453574;28;20428;-96
2023/08/19 08:24:47;;;;;;;9.43;8.32;;;;;;;;;;10459498;28;20403;-96
2023/08/19 08:29:51;;;;;;;9.27;7.97;;;;;;;;;;10441139;28;20475;-95
2023/08/19 08:34:54;;;;;;;8.40;7.57;;;;;;;;;;10449756;28;20535;-95
2023/08/19 08:39:57;;;;;;;8.82;7.70;;;;;;;;;;10459603;28;20444;-96
2023/08/19 08:45:02;;;;;;;9.50;8.30;;;;;;;;;;10462046;28;20446;-96
2023/08/19 08:50:06;;;;;;;10.90;8.13;;;;;;;;;;10450762;28;20468;-94
2023/08/19 08:55:12;;;;;;;8.30;7.50;;;;;;;;;;10460682;28;20444;-95
2023/08/19 09:00:18;;;;;;;8.80;7.78;;;;;;;;;;10431528;28;20407;-94
2023/08/19 09:05:29;;;;;;;8.77;7.88;;;;;;;;;;10472572;28;20784;-96
2023/08/19 09:10:38;;;;;;;8.80;7.90;;;;;;;;;;10473102;28;20396;-95
2023/08/19 09:15:42;;;;;;;8.57;7.67;;;;;;;;;;10444166;28;20964;-92
2023/08/19 09:20:45;;;;;;;9.23;7.55;;;;;;;;;;10431627;28;20822;-94
2023/08/19 09:25:55;;;;;;;8.98;8.07;;;;;;;;;;10443281;28;20413;-96
2023/08/19 09:30:59;;;;;;;8.70;7.45;;;;;;;;;;10440513;28;20410;-93
2023/08/19 09:36:02;;;;;;;8.45;7.53;;;;;;;;;;10450960;28;20413;-96
2023/08/19 09:41:07;;;;;;;8.55;7.65;;;;;;;;;;10454990;28;20442;-96
2023/08/19 09:46:11;;;;;;;9.88;7.90;;;;;;;;;;10461652;28;20419;-96
2023/08/19 09:51:23;;;;;;;8.57;7.68;;;;;;;;;;10467402;28;20414;-96
2023/08/19 09:56:27;;;;;;;8.50;7.53;;;;;;;;;;10443836;28;20439;-94
2023/08/19 10:01:32;;;;;;;8.37;7.57;;;;;;;;;;10434449;28;20421;-96
2023/08/19 10:06:39;;;;;;;8.20;7.40;;;;;;;;;;10462029;28;20446;-96
2023/08/19 10:11:45;;;;;;;8.00;7.30;;;;;;;;;;10466406;28;20450;-96
2023/08/19 10:16:52;;;;;;;7.50;6.80;;;;;;;;;;10470703;28;20444;-96
2023/08/19 10:21:58;;;;;;;8.30;7.50;;;;;;;;;;10468337;28;20411;-96
2023/08/19 10:27:01;;;;;;;7.75;7.00;;;;;;;;;;10462891;28;20417;-95
2023/08/19 10:32:29;;;;;;;7.27;6.67;;;;;;;;;;10467413;28;20461;-96
2023/08/19 10:37:33;;;;;;;8.73;6.70;;;;;;;;;;10441036;28;20397;-95
2023/08/19 10:42:36;;;;;;;8.95;6.85;;;;;;;;;;10441470;28;20457;-96
2023/08/19 10:47:42;;;;;;;10.02;7.30;;;;;;;;;;10443195;28;20425;-96
2023/08/19 10:53:03;;;;;;;9.90;7.20;;;;;;;;;;10458653;28;20409;-96
2023/08/19 10:58:08;;;;;;;8.93;7.10;;;;;;;;;;10466822;28;20445;-96
2023/08/19 11:03:13;;;;;;;8.67;6.90;;;;;;;;;;10452572;28;20991;-96
2023/08/19 11:08:16;;;;;;;8.60;6.93;;;;;;;;;;10435553;28;20452;-95
2023/08/19 11:13:19;;;;;;;7.90;7.10;;;;;;;;;;10437958;28;20417;-96
2023/08/19 11:18:23;;;;;;;7.88;7.18;;;;;;;;;;10437284;28;20892;-96
2023/08/19 11:23:28;;;;;;;7.97;7.25;;;;;;;;;;10450850;28;20471;-95
2023/08/19 11:28:32;;;;;;;7.77;6.77;;;;;;;;;;10456647;28;20421;-96
2023/08/19 11:33:38;;;;;;;9.35;7.10;;;;;;;;;;10464518;28;20438;-94
2023/08/19 11:38:40;;;;;;;9.32;7.38;;;;;;;;;;10455535;28;20444;-95
2023/08/19 11:43:46;;;;;;;7.43;6.72;;;;;;;;;;10449839;28;20559;-96
2023/08/19 11:48:51;;;;;;;9.50;7.32;;;;;;;;;;10444781;28;20474;-95
2023/08/19 11:53:55;;;;;;;7.45;6.63;;;;;;;;;;10445278;28;20410;-94
2023/08/19 11:58:58;;;;;;;7.27;6.67;;;;;;;;;;10440998;28;20413;-94
2023/08/19 12:04:02;;;;;;;8.73;6.57;;;;;;;;;;10441452;28;20440;-95
2023/08/19 12:09:04;;;;;;;7.72;7.03;;;;;;;;;;10440984;28;20415;-94
2023/08/19 12:14:07;;;;;;;7.35;6.53;;;;;;;;;;10431653;28;20888;-95
2023/08/19 12:19:11;;;;;;;7.45;6.75;;;;;;;;;;10441004;28;20484;-95
2023/08/19 12:24:14;;;;;;;7.35;6.65;;;;;;;;;;10436338;28;20835;-96
2023/08/19 12:29:16;;;;;;;7.00;6.30;;;;;;;;;;10440364;28;20450;-95
2023/08/19 12:34:20;;;;;;;7.40;6.35;;;;;;;;;;10436526;28;20410;-95
2023/08/19 12:39:23;;;;;;;7.17;6.47;;;;;;;;;;10432192;28;20461;-95
2023/08/19 12:44:25;;;;;;;6.95;6.22;;;;;;;;;;10417071;28;20484;-96
2023/08/19 12:49:29;;;;;;;8.00;6.50;;;;;;;;;;10415968;28;21546;-95
2023/08/19 12:54:32;;;;;;;8.05;6.78;;;;;;;;;;10449350;22;20485;-95
2023/08/19 12:59:34;;;;;;;6.85;6.22;;;;;;;;;;10446096;28;20411;-96
2023/08/19 13:04:38;;;;;;;8.45;6.78;;;;;;;;;;10442607;28;20467;-96
2023/08/19 13:09:41;;;;;;;7.53;6.82;;;;;;;;;;10457387;28;20420;-96
2023/08/19 13:14:46;;;;;;;7.75;6.78;;;;;;;;;;10451232;28;22719;-96
2023/08/19 13:19:50;;;;;;;7.90;7.10;;;;;;;;;;10441187;28;20412;-96
2023/08/19 13:24:52;;;;;;;7.73;6.70;;;;;;;;;;10449938;28;20470;-96
2023/08/19 13:29:55;;;;;;;6.70;6.10;;;;;;;;;;10441688;28;20469;-96
2023/08/19 13:34:59;;;;;;;7.23;6.50;;;;;;;;;;10436198;28;20438;-96
2023/08/19 13:40:04;;;;;;;6.63;5.90;;;;;;;;;;10436461;28;20446;-96
2023/08/19 13:45:08;;;;;;;7.63;5.97;;;;;;;;;;10430572;28;20455;-96
2023/08/19 13:50:12;;;;;;;6.25;5.65;;;;;;;;;;10435136;28;20476;-96
2023/08/19 13:55:15;;;;;;;5.83;5.33;;;;;;;;;;10438933;28;20411;-95
2023/08/19 14:00:18;;;;;;;6.13;5.63;;;;;;;;;;10465505;28;20422;-96
2023/08/19 14:05:22;;;;;;;6.60;6.00;;;;;;;;;;10467325;28;20489;-96
2023/08/19 14:10:25;;;;;;;6.68;5.75;;;;;;;;;;10443620;28;20425;-96
2023/08/19 14:15:27;;;;;;;6.93;5.97;;;;;;;;;;10454046;28;20471;-96
2023/08/19 14:20:31;;;;;;;6.47;5.87;;;;;;;;;;10438958;28;20438;-96
2023/08/19 14:25:34;;;;;;;6.63;5.82;;;;;;;;;;10440501;28;20416;-96
2023/08/19 14:30:37;;;;;;;6.57;5.87;;;;;;;;;;10440934;28;20425;-96
2023/08/19 14:35:42;;;;;;;6.80;6.03;;;;;;;;;;10439588;28;20436;-96
2023/08/19 14:40:44;;;;;;;6.95;5.72;;;;;;;;;;10447001;28;20444;-95
2023/08/19 14:45:47;;;;;;;6.65;5.72;;;;;;;;;;10452821;28;20401;-96
2023/08/19 14:50:51;;;;;;;6.43;5.60;;;;;;;;;;10458643;28;20498;-96
2023/08/19 14:55:54;;;;;;;6.93;6.10;;;;;;;;;;10454720;28;20411;-94
2023/08/19 15:00:56;;;;;;;7.20;6.18;;;;;;;;;;10453110;28;20415;-96
2023/08/19 15:06:02;;;;;;;6.30;5.70;;;;;;;;;;10448179;28;20406;-96
2023/08/19 15:11:04;;;;;;;6.60;5.88;;;;;;;;;;10452124;28;20428;-96
2023/08/19 15:16:07;;;;;;;6.35;5.75;;;;;;;;;;10451663;28;20398;-96
2023/08/19 15:21:11;;;;;;;6.60;6.00;;;;;;;;;;10443980;28;20444;-96
2023/08/19 15:26:13;;;;;;;5.82;5.30;;;;;;;;;;10467307;28;20405;-96
2023/08/19 15:31:21;;;;;;;6.73;5.93;;;;;;;;;;10482822;28;20809;-96
2023/08/19 15:36:25;;;;;;;6.22;5.28;;;;;;;;;;10455138;28;20436;-96
2023/08/19 15:41:28;;;;;;;6.72;6.00;;;;;;;;;;10438993;28;20877;-96
2023/08/19 15:46:30;;;;;;;6.55;5.85;;;;;;;;;;10464008;28;20382;-91
2023/08/19 15:51:34;;;;;;;5.90;5.30;;;;;;;;;;10467648;28;20450;-96
2023/08/19 15:56:36;;;;;;;6.10;5.60;;;;;;;;;;10462038;28;20469;-96
2023/08/19 16:01:39;;;;;;;5.93;5.00;;;;;;;;;;10455016;28;20386;-96
2023/08/19 16:06:43;;;;;;;6.05;5.38;;;;;;;;;;10447219;28;20448;-96
2023/08/19 16:11:45;;;;;;;6.05;5.45;;;;;;;;;;10433903;28;20459;-95
2023/08/19 16:16:48;;;;;;;6.53;5.80;;;;;;;;;;10428210;28;20402;-96
2023/08/19 16:21:52;;;;;;;5.45;4.88;;;;;;;;;;10449795;28;20481;-96
2023/08/19 16:26:55;;;;;;;5.93;5.43;;;;;;;;;;10453573;28;20442;-96
2023/08/19 16:31:58;;;;;;;6.00;5.43;;;;;;;;;;10451651;28;20453;-96
2023/08/19 16:37:05;;;;;;;5.78;5.28;;;;;;;;;;10450577;28;20403;-96
2023/08/19 16:42:07;;;;;;;5.77;5.27;;;;;;;;;;10450177;28;20411;-96
2023/08/19 16:47:10;;;;;;;6.28;5.68;;;;;;;;;;10458974;28;20398;-95
2023/08/19 16:52:14;;;;;;;7.45;6.10;;;;;;;;;;10457663;28;20772;-96
2023/08/19 16:57:17;;;;;;;6.83;6.10;;;;;;;;;;10458526;28;20413;-95
2023/08/19 17:02:20;;;;;;;7.03;6.33;;;;;;;;;;10447488;28;20413;-96
2023/08/19 17:07:24;;;;;;;7.30;6.50;;;;;;;;;;10455063;28;20950;-95
2023/08/19 17:12:26;;;;;;;7.00;6.23;;;;;;;;;;10459355;28;20448;-96
2023/08/19 17:17:29;;;;;;;7.77;6.43;;;;;;;;;;10448586;28;20405;-96
2023/08/19 17:22:38;;;;;;;6.95;6.32;;;;;;;;;;10460760;28;20440;-96
2023/08/19 17:28:03;;;;;;;7.13;6.40;;;;;;;;;;10443616;23;20378;31
2023/08/19 17:33:11;;;;;;;8.15;6.28;;;;;;;;;;10483605;22;20417;-96
2023/08/19 17:38:16;;;;;;;7.65;6.78;;;;;;;;;;10424819;28;20456;-96
2023/08/19 17:43:19;;;;;;;7.93;6.43;;;;;;;;;;10430098;28;20458;-96
2023/08/19 17:48:22;;;;;;;7.80;7.10;;;;;;;;;;10405310;28;20413;-96
2023/08/19 17:53:26;;;;;;;8.25;7.40;;;;;;;;;;10415872;28;20395;-96
2023/08/19 17:58:30;;;;;;;8.55;7.38;;;;;;;;;;10427558;28;20465;-96
2023/08/19 18:03:33;;;;;;;8.63;7.57;;;;;;;;;;10417393;28;20405;-96
2023/08/19 18:08:37;;;;;;;8.30;7.50;;;;;;;;;;10413920;28;20471;-96
2023/08/19 18:13:41;;;;;;;9.10;7.80;;;;;;;;;;10404125;28;20771;-96
2023/08/19 18:18:43;;;;;;;9.10;7.77;;;;;;;;;;10411794;28;20398;-96
2023/08/19 20:21:42;;;;;;;14.43;11.43;;;;;;;;;;10451282;28;20407;-96
2023/08/19 20:26:47;;;;;;;13.90;11.20;;;;;;;;;;10465377;28;20412;-96
2023/08/19 20:31:54;;;;;;;13.88;11.57;;;;;;;;;;10463781;28;20447;-96
2023/08/19 20:36:58;;;;;;;15.25;11.32;;;;;;;;;;10471494;28;20404;-96
2023/08/19 20:42:00;;;;;;;15.60;11.97;;;;;;;;;;10464167;28;20438;-96
2023/08/19 20:47:04;;;;;;;16.73;12.20;;;;;;;;;;10473679;28;20408;-96
2023/08/19 20:52:11;;;;;;;15.37;12.57;;;;;;;;;;10475653;28;20440;-96
2023/08/19 20:57:20;;;;;;;14.40;11.65;;;;;;;;;;10511414;22;20390;-96
2023/08/19 21:02:25;;;;;;;14.47;11.77;;;;;;;;;;10610988;22;20408;-96
2023/08/19 21:07:32;;;;;;;16.00;12.32;;;;;;;;;;10495028;28;20399;-96
2023/08/19 21:12:35;;;;;;;13.75;12.32;;;;;;;;;;10497632;28;20419;-96
2023/08/19 21:17:38;;;;;;;13.70;12.20;;;;;;;;;;10536974;22;20432;-96
2023/08/19 21:22:45;;;;;;;14.13;12.27;;;;;;;;;;10590477;22;20466;-96
2023/08/19 21:27:48;;;;;;;16.13;12.50;;;;;;;;;;10503404;28;20426;-96
2023/08/19 21:32:52;;;;;;;15.77;13.38;;;;;;;;;;10475516;28;20477;-96
2023/08/19 21:37:57;;;;;;;17.98;13.50;;;;;;;;;;10474787;28;20441;-96
2023/08/19 21:43:01;;;;;;;16.00;12.93;;;;;;;;;;10475940;28;20411;-95
2023/08/19 21:48:04;;;;;;;15.07;12.97;;;;;;;;;;10482877;28;20403;-95
2023/08/19 21:53:08;;;;;;;14.48;12.63;;;;;;;;;;10485549;28;20411;-95
2023/08/19 21:58:11;;;;;;;16.65;13.50;;;;;;;;;;10501711;28;20394;-96
2023/08/19 22:03:14;;;;;;;19.17;15.15;;;;;;;;;;10492599;28;20617;-96
2023/08/19 22:08:19;;;;;;;17.73;13.30;;;;;;;;;;10496976;28;20432;-95
2023/08/19 22:13:22;;;;;;;15.30;12.73;;;;;;;;;;10520598;28;20398;-95
2023/08/19 22:18:25;;;;;;;15.18;12.98;;;;;;;;;;10521849;28;20417;-93
2023/08/19 22:23:29;;;;;;;15.25;12.68;;;;;;;;;;10494892;28;20404;-95
2023/08/19 22:28:32;;;;;;;13.50;11.80;;;;;;;;;;10497473;28;20414;-95
2023/08/19 22:33:35;;;;;;;13.07;11.60;;;;;;;;;;10494175;28;20483;-96
2023/08/19 22:38:39;;;;;;;12.90;11.20;;;;;;;;;;10496354;28;20394;-95
2023/08/19 22:43:42;;;;;;;13.27;11.45;;;;;;;;;;10505056;28;20431;-94
2023/08/19 22:48:45;;;;;;;14.75;12.07;;;;;;;;;;10549443;22;20444;-95
2023/08/19 22:53:50;;;;;;;14.00;11.63;;;;;;;;;;10491146;28;20415;-95
2023/08/19 22:58:53;;;;;;;14.18;11.55;;;;;;;;;;10522566;28;20980;-96
2023/08/19 23:03:56;;;;;;;14.95;11.93;;;;;;;;;;10510815;28;20408;-95
2023/08/19 23:09:00;;;;;;;13.13;11.30;;;;;;;;;;10510524;28;20398;-95
2023/08/19 23:14:03;;;;;;;13.10;11.70;;;;;;;;;;10501715;28;20475;-95
2023/08/19 23:19:06;;;;;;;13.98;11.85;;;;;;;;;;10513932;28;20394;-96
2023/08/19 23:24:10;;;;;;;12.73;11.38;;;;;;;;;;10509182;28;20945;-96
2023/08/19 23:29:13;;;;;;;14.90;11.80;;;;;;;;;;10505651;28;20400;-95
2023/08/19 23:34:16;;;;;;;16.02;11.20;;;;;;;;;;10506131;28;20403;-96
2023/08/19 23:39:20;;;;;;;14.35;11.50;;;;;;;;;;10485033;28;20406;-96
2023/08/19 23:44:23;;;;;;;13.02;11.25;;;;;;;;;;10487147;28;20757;-96
2023/08/19 23:49:26;;;;;;;13.63;11.60;;;;;;;;;;10489033;28;20457;-96
2023/08/19 23:54:32;;;;;;;13.65;12.02;;;;;;;;;;10488757;28;20428;-95
2023/08/19 23:59:35;;;;;;;13.52;12.10;;;;;;;;;;10488764;28;20430;-95
